Time;durP1;ratioP1;P1;durP2;ratioP2;P2;SDS_P1;SDS_P2;PMS_P1;PMS_P2;Temp;Humidity;BMP_temperature;BMP_pressure;BME280_temperature;BME280_humidity;BME280_pressure;Samples;Min_cycle;Max_cycle;Signal;HPM_P1;HPM_P2
2021/04/05 00:02:25;;;;;;;9.68;6.28;;;;;;;10.92;35.03;71781.50;4993566;28;20502;-84
2021/04/05 00:04:53;;;;;;;9.88;5.18;;;;;;;11.02;34.51;71790.09;4994504;28;20557;-82
2021/04/05 00:07:20;;;;;;;7.88;4.43;;;;;;;11.77;30.93;71879.84;4994366;28;20061;-84
2021/04/05 00:09:47;;;;;;;10.57;5.32;;;;;;;11.96;31.54;71898.59;4994092;28;20030;-84
2021/04/05 00:12:14;;;;;;;9.57;5.72;;;;;;;11.89;31.46;71890.81;4993930;28;20030;-83
2021/04/05 00:14:42;;;;;;;14.07;6.60;;;;;;;12.36;32.00;71944.50;4993935;28;20025;-84
2021/04/05 00:17:10;;;;;;;11.57;4.90;;;;;;;12.23;35.64;71931.78;5010903;28;20510;-84
2021/04/05 00:19:44;;;;;;;13.30;7.07;;;;;;;12.23;50.95;71929.59;4993034;28;20456;-84
2021/04/05 00:22:10;;;;;;;15.75;9.40;;;;;;;11.02;52.20;71787.94;4992987;28;20033;-84
2021/04/05 00:24:37;;;;;;;18.42;9.88;;;;;;;11.36;53.19;71832.75;4994037;28;20497;-83
2021/04/05 00:27:05;;;;;;;19.88;9.35;;;;;;;10.07;54.12;71684.41;5015189;28;20025;-83
2021/04/05 00:29:32;;;;;;;14.98;8.10;;;;;;;10.85;54.47;71771.03;5000563;28;20601;-84
2021/04/05 00:31:59;;;;;;;17.25;7.95;;;;;;;10.87;55.54;71773.41;5002440;28;20040;-83
2021/04/05 00:34:25;;;;;;;17.40;7.68;;;;;;;11.27;54.94;71822.03;5017439;28;20034;-84
2021/04/05 00:36:52;;;;;;;17.95;8.70;;;;;;;11.80;55.06;71876.72;4998036;28;20457;-83
2021/04/05 00:39:19;;;;;;;17.75;8.98;;;;;;;11.62;54.05;71862.56;4997484;28;20057;-84
2021/04/05 00:41:46;;;;;;;16.13;8.32;;;;;;;11.40;54.07;71833.59;4997345;28;20064;-84
2021/04/05 00:44:13;;;;;;;15.63;7.78;;;;;;;11.14;54.50;71806.53;5014931;28;20072;-84
2021/04/05 00:46:41;;;;;;;17.60;8.88;;;;;;;11.59;54.15;71858.41;4997383;28;20614;-84
2021/04/05 00:49:08;;;;;;;12.43;8.00;;;;;;;11.95;54.57;71897.38;4997517;28;20484;-83
2021/04/05 00:51:35;;;;;;;16.75;8.95;;;;;;;11.91;54.31;71892.59;4994280;28;20442;-84
2021/04/05 00:54:03;;;;;;;19.52;9.52;;;;;;;10.93;55.58;71782.69;5012336;28;20054;-84
2021/04/05 00:56:30;;;;;;;19.00;9.18;;;;;;;10.94;55.79;71781.16;5003025;28;20045;-85
2021/04/05 00:58:57;;;;;;;17.45;8.45;;;;;;;10.39;56.43;71715.22;5014177;28;20097;-84
2021/04/05 01:01:28;;;;;;;16.00;8.65;;;;;;;11.48;56.34;71840.38;5009403;28;20037;-83
2021/04/05 01:03:56;;;;;;;20.30;9.82;;;;;;;10.24;55.47;71697.97;5009980;28;20023;-84
2021/04/05 01:06:29;;;;;;;19.40;9.88;;;;;;;11.56;55.08;71855.41;5009316;28;20048;-83
2021/04/05 01:08:56;;;;;;;16.42;8.38;;;;;;;11.15;54.17;71807.72;4995719;28;20034;-83
2021/04/05 01:11:26;;;;;;;16.02;10.43;;;;;;;11.49;53.25;71847.06;4996344;28;20022;-85
2021/04/05 01:13:54;;;;;;;10.55;7.13;;;;;;;11.08;53.60;71795.09;4998220;28;20029;-85
2021/04/05 01:16:28;;;;;;;18.85;9.57;;;;;;;10.75;53.26;71759.69;5008413;28;20120;-83
2021/04/05 01:18:57;;;;;;;17.77;8.73;;;;;;;10.37;50.27;71718.34;5007506;28;20018;-86
2021/04/05 01:21:24;;;;;;;14.63;8.65;;;;;;;10.85;51.96;71771.03;5006994;28;20030;-84
2021/04/05 01:23:51;;;;;;;22.00;8.90;;;;;;;11.60;53.24;71860.19;5025115;28;20105;-85
2021/04/05 01:26:18;;;;;;;14.32;8.82;;;;;;;11.44;54.69;71841.09;4993524;28;20045;-84
2021/04/05 01:28:45;;;;;;;17.48;9.80;;;;;;;10.13;53.73;71693.69;5008298;28;20068;-81
2021/04/05 01:31:12;;;;;;;22.70;8.40;;;;;;;10.52;54.47;71733.50;4988370;28;20073;-84
2021/04/05 01:33:41;;;;;;;19.95;10.05;;;;;;;11.19;54.73;71813.09;4999766;28;20029;-83
2021/04/05 01:36:12;;;;;;;17.92;7.93;;;;;;;11.54;51.32;71849.69;5022911;28;20029;-84
2021/04/05 01:39:04;;;;;;;;;;;;;;;11.70;51.78;71871.50;5004770;28;20022;-83
2021/04/05 01:41:32;;;;;;;15.70;8.73;;;;;;;10.94;51.22;71778.41;5000136;28;19913;-83
2021/04/05 01:43:59;;;;;;;12.55;8.68;;;;;;;11.78;52.55;71874.94;5005915;28;20171;-87
2021/04/05 01:46:29;;;;;;;16.40;8.48;;;;;;;11.89;52.00;71893.56;5028245;28;20033;-88
2021/04/05 01:49:02;;;;;;;23.63;9.05;;;;;;;12.07;49.77;71913.28;4999629;28;20036;-88
2021/04/05 01:51:29;;;;;;;25.40;10.02;;;;;;;11.04;50.16;71792.47;4995071;28;20048;-87
2021/04/05 01:53:57;;;;;;;26.20;11.32;;;;;;;12.39;51.99;71950.84;5015812;28;20049;-87
2021/04/05 01:56:24;;;;;;;23.75;8.65;;;;;;;11.42;49.40;71835.97;5020407;28;20108;-88
2021/04/05 01:58:53;;;;;;;17.88;8.98;;;;;;;11.27;48.05;71819.28;5019873;28;20030;-87
2021/04/05 02:01:24;;;;;;;18.38;10.55;;;;;;;12.08;49.41;71915.06;5003941;28;20391;-88
2021/04/05 02:03:52;;;;;;;16.55;9.18;;;;;;;11.78;50.63;71881.03;5018882;28;20057;-87
2021/04/05 02:06:27;;;;;;;12.98;8.70;;;;;;;12.04;48.50;71910.91;4996201;28;20448;-87
2021/04/05 02:08:54;;;;;;;14.73;9.52;;;;;;;11.60;46.44;71859.59;4995581;28;20368;-88
2021/04/05 02:11:24;;;;;;;17.50;11.20;;;;;;;10.96;46.33;71786.28;4996964;28;20386;-87
2021/04/05 02:13:55;;;;;;;11.00;7.67;;;;;;;12.07;45.94;71913.88;5017639;28;20084;-87
2021/04/05 02:16:24;;;;;;;16.50;9.93;;;;;;;11.51;45.95;71849.44;5004882;28;20073;-87
2021/04/05 02:18:54;;;;;;;20.20;9.23;;;;;;;10.60;47.24;71742.44;4991485;28;20117;-87
2021/04/05 02:21:22;;;;;;;;;;;;;;;11.88;47.20;71892.38;4980790;28;20026;-87
2021/04/05 02:23:54;;;;;;;15.65;7.45;;;;;;;11.81;45.31;71881.28;5014110;28;19913;-87
2021/04/05 02:26:29;;;;;;;14.63;8.23;;;;;;;10.29;45.17;71709.44;5031763;28;20033;-87
2021/04/05 02:29:01;;;;;;;13.68;9.15;;;;;;;11.14;45.22;71795.53;5009913;28;20030;-87
2021/04/05 02:31:30;;;;;;;17.83;9.13;;;;;;;11.64;45.48;71862.19;4996521;28;20090;-87
2021/04/05 02:33:59;;;;;;;14.80;8.57;;;;;;;11.13;44.88;71799.84;4996679;28;20372;-88
2021/04/05 02:36:29;;;;;;;17.77;10.13;;;;;;;11.90;44.39;71891.41;5002762;28;20022;-87
2021/04/05 02:39:01;;;;;;;17.42;9.02;;;;;;;11.73;44.04;71872.34;4976763;28;20048;-88
2021/04/05 02:41:31;;;;;;;16.63;8.50;;;;;;;11.25;43.88;71819.66;4977206;28;20373;-87
2021/04/05 02:43:59;;;;;;;15.48;8.82;;;;;;;11.28;44.75;71823.22;4977219;28;20034;-88
2021/04/05 02:46:30;;;;;;;16.70;9.00;;;;;;;12.27;42.60;71931.03;4983367;28;20132;-87
2021/04/05 02:49:01;;;;;;;17.88;8.65;;;;;;;11.86;41.98;71883.88;4992046;28;20115;-87
2021/04/05 02:51:28;;;;;;;19.83;7.72;;;;;;;11.99;40.37;71904.28;4992317;28;20066;-87
2021/04/05 02:54:01;;;;;;;16.15;8.95;;;;;;;11.64;41.77;71862.19;5003937;28;20140;-87
2021/04/05 02:56:30;;;;;;;10.38;6.75;;;;;;;10.37;40.75;71715.59;4985483;28;20045;-87
2021/04/05 02:58:58;;;;;;;12.30;7.80;;;;;;;11.91;40.30;71895.94;4980747;28;20027;-87
2021/04/05 03:01:27;;;;;;;15.73;7.97;;;;;;;12.06;40.25;71912.66;4995584;28;20022;-87
2021/04/05 03:03:59;;;;;;;8.23;6.28;;;;;;;11.27;40.22;71821.44;4994432;28;20014;-87
2021/04/05 03:06:29;;;;;;;13.30;7.40;;;;;;;12.00;41.49;71902.75;4977109;28;20057;-87
2021/04/05 03:09:01;;;;;;;25.65;8.48;;;;;;;11.48;41.05;71840.38;4976923;28;20450;-87
2021/04/05 03:11:30;;;;;;;11.75;7.35;;;;;;;11.53;42.48;71851.84;4994566;28;20073;-87
2021/04/05 03:13:58;;;;;;;21.65;9.23;;;;;;;11.76;40.86;71872.56;4977008;28;20059;-87
2021/04/05 03:16:26;;;;;;;11.25;8.02;;;;;;;11.48;41.98;71843.13;4976285;28;20031;-87
2021/04/05 03:18:56;;;;;;;16.45;8.95;;;;;;;12.00;41.27;71905.50;4976130;28;20030;-87
2021/04/05 03:21:24;;;;;;;13.37;9.43;;;;;;;10.91;41.34;71780.31;4976071;28;20457;-87
2021/04/05 03:23:52;;;;;;;11.68;8.48;;;;;;;12.22;42.61;71930.56;4979880;28;20062;-87
2021/04/05 03:26:19;;;;;;;11.82;8.48;;;;;;;11.68;43.02;71868.53;4977635;28;20034;-87
2021/04/05 03:28:46;;;;;;;14.82;8.50;;;;;;;12.26;42.74;71935.34;4976251;28;20570;-86
2021/04/05 03:31:22;;;;;;;17.13;8.70;;;;;;;11.74;42.95;71870.78;4976527;28;20676;-88
2021/04/05 03:34:16;;;;;;;12.95;8.68;;;;;;;12.47;43.84;71953.69;4977619;28;20053;-87
2021/04/05 03:36:57;;;;;;;15.48;9.23;;;;;;;12.40;42.33;71948.69;4996752;28;20030;-87
2021/04/05 03:39:25;;;;;;;15.73;11.25;;;;;;;11.99;41.38;71904.28;4986772;28;20046;-87
2021/04/05 03:42:11;;;;;;;13.25;9.70;;;;;;;12.60;41.79;71971.94;4982725;28;20034;-87
2021/04/05 03:44:50;;;;;;;19.92;9.93;;;;;;;12.41;44.29;71952.63;4978247;28;20034;-88
2021/04/05 03:47:28;;;;;;;18.50;9.38;;;;;;;12.19;43.91;71922.09;4977790;28;20085;-87
2021/04/05 03:50:04;;;;;;;21.10;10.57;;;;;;;12.09;43.70;71912.91;4981455;28;20038;-87
2021/04/05 03:52:40;;;;;;;19.90;9.80;;;;;;;12.27;45.57;71937.13;5024440;28;20029;-86
2021/04/05 03:55:09;;;;;;;15.07;9.10;;;;;;;12.61;42.35;71969.78;4996435;28;20057;-87
2021/04/05 03:57:44;;;;;;;18.95;10.38;;;;;;;12.14;40.05;71918.88;4993197;28;20506;-86
2021/04/05 04:00:14;;;;;;;14.73;9.30;;;;;;;12.71;40.09;71982.31;4999923;28;20027;-87
2021/04/05 04:02:46;;;;;;;17.02;8.55;;;;;;;12.45;38.17;71958.00;5000974;28;20030;-87
2021/04/05 04:05:58;;;;;;;20.60;10.75;;;;;;;11.91;40.22;71895.94;4999380;28;20030;-87
2021/04/05 04:08:14;;;;;;;15.35;10.05;;;;;;;11.76;41.15;71875.91;4994542;28;20443;-87
2021/04/05 04:10:49;;;;;;;17.85;9.82;;;;;;;11.37;40.84;71830.63;4998877;28;20030;-88
2021/04/05 04:13:18;;;;;;;17.00;10.55;;;;;;;11.73;41.35;71875.09;4998226;28;20034;-87
2021/04/05 04:15:50;;;;;;;23.50;9.70;;;;;;;11.96;41.55;71895.81;4996372;28;20037;-88
2021/04/05 04:18:20;;;;;;;17.70;11.20;;;;;;;12.65;41.35;71980.66;4996312;28;20092;-88
2021/04/05 04:20:48;;;;;;;19.08;10.52;;;;;;;11.90;42.25;71892.00;4997693;28;20117;-87
2021/04/05 04:23:15;;;;;;;22.35;11.43;;;;;;;11.78;42.37;71878.28;4997004;28;20042;-88
2021/04/05 04:25:42;;;;;;;15.80;10.23;;;;;;;12.09;43.46;71916.25;4995602;28;20042;-87
2021/04/05 04:28:15;;;;;;;14.88;10.68;;;;;;;12.04;42.65;71910.28;4995028;28;20117;-88
2021/04/05 04:30:42;;;;;;;15.73;11.10;;;;;;;13.03;43.46;72020.88;4996030;28;20488;-88
2021/04/05 04:33:11;;;;;;;19.85;10.55;;;;;;;13.02;43.66;72016.94;4997340;28;20039;-88
2021/04/05 04:35:40;;;;;;;18.00;9.80;;;;;;;13.07;44.05;72026.25;4995995;28;20027;-88
2021/04/05 04:38:08;;;;;;;15.23;9.33;;;;;;;13.34;44.07;72054.53;4995824;28;20081;-88
2021/04/05 04:40:36;;;;;;;16.48;9.57;;;;;;;13.32;45.24;72051.53;4995399;28;20025;-87
2021/04/05 04:43:06;;;;;;;20.17;10.95;;;;;;;13.11;45.00;72033.19;4991228;28;20027;-86
2021/04/05 04:45:34;;;;;;;17.50;9.48;;;;;;;12.83;45.49;71995.44;4992788;28;20029;-88
2021/04/05 04:48:01;;;;;;;25.77;11.02;;;;;;;13.07;46.19;72025.66;4992952;28;20030;-87
2021/04/05 04:50:28;;;;;;;15.55;8.90;;;;;;;12.44;47.53;71950.72;4976012;28;20117;-86
2021/04/05 04:52:56;;;;;;;19.02;9.57;;;;;;;12.33;47.61;71943.69;4977032;28;20511;-86
2021/04/05 04:55:25;;;;;;;15.13;10.13;;;;;;;12.77;47.70;71988.28;4983048;28;20053;-87
2021/04/05 04:57:59;;;;;;;19.58;10.45;;;;;;;12.64;48.06;71976.72;4980001;28;20034;-87
2021/04/05 05:00:28;;;;;;;13.98;10.15;;;;;;;12.42;47.29;71954.41;4979539;28;20030;-88
2021/04/05 05:02:56;;;;;;;17.95;10.82;;;;;;;12.29;47.48;71933.41;4979310;28;20037;-87
2021/04/05 05:05:27;;;;;;;21.52;10.57;;;;;;;12.37;49.70;71945.69;4978989;28;20110;-87
2021/04/05 05:07:55;;;;;;;17.35;11.35;;;;;;;12.08;50.75;71915.06;4996834;28;20030;-89
2021/04/05 05:10:23;;;;;;;20.88;10.88;;;;;;;12.32;52.17;71939.75;4981962;28;20030;-85
2021/04/05 05:12:50;;;;;;;20.50;11.57;;;;;;;11.18;53.70;71808.56;4995225;28;20172;-88
2021/04/05 05:15:17;;;;;;;17.30;9.80;;;;;;;12.40;51.27;71946.53;5000154;28;20053;-87
2021/04/05 05:17:48;;;;;;;18.98;10.15;;;;;;;11.49;50.47;71847.66;5001849;28;20037;-87
2021/04/05 05:20:18;;;;;;;14.07;9.70;;;;;;;12.44;49.13;71956.81;5030828;28;20040;-87
2021/04/05 05:22:53;;;;;;;17.08;10.18;;;;;;;11.84;48.82;71884.25;5003735;28;20375;-89
2021/04/05 05:25:22;;;;;;;20.60;8.90;;;;;;;11.89;48.18;71890.81;5003275;28;20034;-86
2021/04/05 05:28:07;;;;;;;14.77;8.80;;;;;;;12.45;47.82;71958.00;5008068;28;20052;-85
2021/04/05 05:30:36;;;;;;;16.77;10.15;;;;;;;12.58;48.82;71966.81;5008303;28;20065;-85
2021/04/05 05:33:06;;;;;;;20.77;10.85;;;;;;;12.37;49.42;71948.44;5004121;28;20028;-86
2021/04/05 05:35:33;;;;;;;;;;;;;;;12.55;51.06;71966.56;5003992;28;20061;-87
2021/04/05 05:38:02;;;;;;;17.77;10.50;;;;;;;12.72;48.31;71989.03;5002892;28;19952;-86
2021/04/05 05:40:30;;;;;;;19.23;11.30;;;;;;;11.21;47.54;71812.75;4997448;28;20399;-87
2021/04/05 05:43:22;;;;;;;16.80;11.77;;;;;;;11.74;48.34;71872.94;5015324;28;20114;-87
2021/04/05 05:46:23;;;;;;;14.45;10.88;;;;;;;11.78;48.74;71880.47;4997994;28;20506;-86
2021/04/05 05:49:34;;;;;;;18.85;11.05;;;;;;;12.51;47.96;71958.44;4978969;28;20034;-88
2021/04/05 05:52:40;;;;;;;20.25;11.50;;;;;;;12.10;47.55;71911.94;4994894;28;20076;-88
2021/04/05 05:55:44;;;;;;;23.55;12.65;;;;;;;12.59;48.51;71970.75;4990635;28;20059;-88
2021/04/05 05:58:33;;;;;;;17.92;11.02;;;;;;;12.89;48.91;72004.78;4975666;28;20037;-88
2021/04/05 06:01:31;;;;;;;21.35;12.98;;;;;;;12.86;49.54;72004.53;4976906;28;20023;-85
2021/04/05 06:04:30;;;;;;;18.98;10.27;;;;;;;11.94;48.63;71898.34;4980190;28;20038;-88
2021/04/05 06:07:21;;;;;;;19.85;11.43;;;;;;;12.44;47.71;71956.81;4994061;28;20031;-88
2021/04/05 06:10:12;;;;;;;23.67;11.32;;;;;;;12.72;47.52;71986.25;4990966;28;20484;-89
2021/04/05 06:12:54;;;;;;;28.52;12.75;;;;;;;12.60;47.77;71971.94;4990139;28;20565;-87
2021/04/05 06:15:28;;;;;;;26.15;11.30;;;;;;;12.71;47.93;71984.47;4990359;28;20075;-87
2021/04/05 06:18:31;;;;;;;16.23;9.38;;;;;;;12.80;46.49;71997.38;4973405;28;20038;-87
2021/04/05 06:21:05;;;;;;;20.52;10.93;;;;;;;12.43;43.85;71949.50;4989741;28;20038;-88
2021/04/05 06:23:40;;;;;;;12.88;9.82;;;;;;;12.94;43.47;72008.56;4988653;28;20031;-87
2021/04/05 06:26:32;;;;;;;13.90;8.73;;;;;;;12.93;39.38;72007.38;4991405;28;20034;-87
2021/04/05 06:29:08;;;;;;;13.80;9.85;;;;;;;12.87;39.05;72005.72;4976419;28;20114;-87
2021/04/05 06:31:56;;;;;;;17.95;10.52;;;;;;;13.23;39.38;72044.16;4991703;28;20023;-87
2021/04/05 06:34:35;;;;;;;22.60;9.65;;;;;;;13.12;39.82;72034.38;4990810;28;20035;-87
2021/04/05 06:37:13;;;;;;;21.73;10.48;;;;;;;12.77;39.67;71988.88;4990894;28;20516;-87
2021/04/05 06:39:50;;;;;;;15.00;9.70;;;;;;;12.90;39.67;72003.19;5005465;28;20035;-86
2021/04/05 06:42:51;;;;;;;16.25;9.77;;;;;;;12.92;38.91;72008.34;4986498;28;20173;-87
2021/04/05 06:45:48;;;;;;;15.38;8.95;;;;;;;11.81;37.69;71884.03;5005969;28;20515;-88
2021/04/05 06:48:52;;;;;;;15.25;9.60;;;;;;;12.53;37.33;71961.44;4974363;28;20027;-87
2021/04/05 06:51:44;;;;;;;17.77;10.70;;;;;;;12.70;39.58;71983.28;4925940;28;20050;-86
2021/04/05 06:54:49;;;;;;;17.70;9.57;;;;;;;12.75;39.05;71992.00;4985667;28;20049;-87
2021/04/05 06:57:22;;;;;;;18.10;11.63;;;;;;;11.86;39.80;71886.63;4975165;28;20030;-85
2021/04/05 07:00:05;;;;;;;18.35;10.85;;;;;;;12.64;40.19;71979.47;4988895;28;20474;-87
2021/04/05 07:02:50;;;;;;;14.00;9.88;;;;;;;12.62;39.86;71973.75;4994610;28;20495;-86
2021/04/05 07:05:46;;;;;;;14.13;9.18;;;;;;;11.75;37.71;71874.13;4994249;28;20096;-88
2021/04/05 07:08:39;;;;;;;17.27;9.68;;;;;;;12.79;38.98;71996.19;4994591;28;20038;-85
2021/04/05 07:11:23;;;;;;;17.67;9.35;;;;;;;12.03;36.61;71909.09;4994572;28;20038;-86
2021/04/05 07:14:24;;;;;;;13.10;7.95;;;;;;;12.08;37.12;71912.31;4994703;28;20057;-86
2021/04/05 07:17:17;;;;;;;12.98;7.70;;;;;;;12.32;37.27;71937.00;4973878;28;20046;-86
2021/04/05 07:20:08;;;;;;;13.48;8.05;;;;;;;12.60;38.79;71974.69;5014231;28;20033;-92
2021/04/05 07:23:02;;;;;;;12.60;8.00;;;;;;;12.77;39.68;71991.63;5001685;28;20037;-86
2021/04/05 07:26:07;;;;;;;16.00;6.93;;;;;;;12.49;38.00;71961.59;4993935;28;20442;-89
2021/04/05 07:29:11;;;;;;;10.38;6.47;;;;;;;12.67;38.22;71980.28;5009441;28;20034;-80
2021/04/05 07:31:59;;;;;;;9.77;7.00;;;;;;;12.70;39.24;71977.75;4988435;28;20111;-84
2021/04/05 07:34:32;;;;;;;17.75;7.72;;;;;;;12.93;40.52;72006.78;4992640;28;20125;-83
2021/04/05 07:37:05;;;;;;;11.75;7.10;;;;;;;12.39;40.09;71944.72;4986996;28;20030;-83
2021/04/05 07:39:46;;;;;;;10.27;6.97;;;;;;;12.60;39.78;71971.94;5015160;28;20123;-83
2021/04/05 07:42:33;;;;;;;10.95;6.43;;;;;;;12.22;39.92;71925.03;4993127;28;20049;-82
2021/04/05 07:45:29;;;;;;;12.35;7.38;;;;;;;12.38;41.08;71949.06;5010164;28;20034;-80
2021/04/05 07:48:21;;;;;;;14.60;7.35;;;;;;;12.22;41.02;71925.66;5007005;28;20046;-82
2021/04/05 07:50:53;;;;;;;11.68;6.57;;;;;;;12.23;42.28;71926.25;4992635;28;20041;-82
2021/04/05 07:53:25;;;;;;;19.20;7.78;;;;;;;11.27;43.47;71818.69;5005127;28;20034;-82
2021/04/05 07:55:55;;;;;;;15.32;7.65;;;;;;;12.01;45.02;71904.53;4982989;28;20097;-82
2021/04/05 07:58:33;;;;;;;16.80;5.88;;;;;;;11.93;45.36;71894.41;4973337;28;20038;-82
2021/04/05 08:01:25;;;;;;;12.27;5.90;;;;;;;12.15;47.30;71923.41;4978136;28;20034;-83
2021/04/05 08:04:36;;;;;;;14.30;8.23;;;;;;;12.30;46.02;71940.13;4991154;28;20451;-83
2021/04/05 08:07:29;;;;;;;10.63;6.18;;;;;;;12.02;45.80;71905.13;4981655;28;20054;-83
2021/04/05 08:10:49;;;;;;;10.02;6.28;;;;;;;12.29;45.94;71933.41;4988271;28;20053;-82
2021/04/05 08:13:34;;;;;;;10.75;7.03;;;;;;;12.29;48.59;71933.41;4930731;29;20047;-82
2021/04/05 08:16:16;;;;;;;9.15;6.40;;;;;;;12.03;46.19;71909.09;4991422;28;20030;-83
2021/04/05 08:18:56;;;;;;;11.50;5.80;;;;;;;12.18;42.31;71927.00;4990918;28;20093;-82
2021/04/05 08:21:31;;;;;;;10.10;5.45;;;;;;;11.86;41.07;71890.00;4990857;28;20051;-82
2021/04/05 08:24:30;;;;;;;10.02;5.80;;;;;;;12.21;40.13;71926.63;4973366;28;20396;-82
2021/04/05 08:27:32;;;;;;;11.15;5.95;;;;;;;11.64;38.13;71859.44;4990456;28;20026;-82
2021/04/05 08:30:04;;;;;;;10.88;4.80;;;;;;;12.25;37.07;71929.22;4990927;28;20118;-82
2021/04/05 08:32:35;;;;;;;6.20;4.45;;;;;;;12.16;36.21;71921.84;4973465;28;20488;-83
2021/04/05 08:35:38;;;;;;;10.63;4.90;;;;;;;12.10;37.25;71917.44;4988990;28;20084;-86
2021/04/05 08:38:30;;;;;;;6.30;4.15;;;;;;;12.11;37.28;71915.88;4968584;28;20097;-88
2021/04/05 08:41:32;;;;;;;6.80;4.70;;;;;;;12.25;37.58;71931.41;4973713;28;21546;-87
2021/04/05 08:44:21;;;;;;;6.32;4.95;;;;;;;12.37;35.31;71945.69;4973949;28;20034;-89
2021/04/05 08:46:50;;;;;;;8.27;4.43;;;;;;;12.40;35.99;71949.28;4977026;28;20034;-87
2021/04/05 08:49:20;;;;;;;10.65;4.63;;;;;;;11.73;35.08;71872.34;4963311;28;20034;-88
2021/04/05 08:51:57;;;;;;;9.68;5.70;;;;;;;11.86;34.83;71887.25;4975190;28;20503;-88
2021/04/05 08:54:28;;;;;;;6.35;4.57;;;;;;;11.05;34.61;71797.00;4999953;28;20124;-88
2021/04/05 08:56:59;;;;;;;;;;;;;;;12.33;34.89;71943.69;5000639;28;20502;-92
2021/04/05 08:59:50;;;;;;;7.68;4.10;;;;;;;12.34;35.45;71941.53;5000442;28;19917;-89
2021/04/05 09:02:35;;;;;;;8.65;3.47;;;;;;;12.44;33.56;71953.47;4999129;28;20057;-89
2021/04/05 09:05:07;;;;;;;9.85;4.78;;;;;;;12.20;32.96;71925.44;4980492;28;20030;-92
2021/04/05 09:08:06;;;;;;;12.27;4.65;;;;;;;11.52;33.42;71847.88;4982973;28;20121;-91
2021/04/05 09:10:51;;;;;;;6.72;3.72;;;;;;;12.15;33.32;71920.66;4963598;28;20043;-95
2021/04/05 09:13:35;;;;;;;6.07;3.78;;;;;;;12.08;33.01;71911.72;4981789;28;20062;-92
2021/04/05 09:16:14;;;;;;;6.70;4.10;;;;;;;12.05;33.22;71908.72;4982601;28;20450;-93
2021/04/05 09:18:53;;;;;;;7.43;3.88;;;;;;;12.13;34.00;71917.69;4980762;28;20039;-83
2021/04/05 09:21:38;;;;;;;9.70;3.90;;;;;;;11.90;34.94;71892.00;4980694;28;20080;-91
2021/04/05 09:24:17;;;;;;;6.70;4.28;;;;;;;11.87;33.97;71888.44;4986292;28;20030;-92
2021/04/05 09:27:07;;;;;;;4.03;3.55;;;;;;;11.26;34.26;71820.84;4988651;28;20434;-85
2021/04/05 09:29:37;;;;;;;7.57;4.63;;;;;;;11.89;33.64;71890.22;5002580;28;20525;-84
2021/04/05 09:32:19;;;;;;;6.97;3.53;;;;;;;11.84;34.60;71887.00;4990845;28;20030;-84
2021/04/05 09:35:05;;;;;;;5.30;3.22;;;;;;;11.87;34.60;71887.84;4993965;28;20026;-83
2021/04/05 09:38:00;;;;;;;10.38;4.50;;;;;;;11.48;35.38;71843.13;4988367;28;20049;-85
2021/04/05 09:41:03;;;;;;;11.23;4.75;;;;;;;11.76;35.47;71878.66;4979688;28;20090;-86
2021/04/05 09:43:58;;;;;;;6.97;3.13;;;;;;;11.74;33.43;71870.19;4984684;28;20026;-85
2021/04/05 09:46:46;;;;;;;7.55;4.20;;;;;;;11.06;35.65;71798.19;4985073;28;20038;-85
2021/04/05 09:49:20;;;;;;;5.70;3.40;;;;;;;11.63;34.53;71860.41;4997458;28;20073;-84
2021/04/05 09:52:08;;;;;;;5.30;3.65;;;;;;;11.30;34.93;71825.03;4978751;28;20069;-84
2021/04/05 09:54:45;;;;;;;9.15;3.60;;;;;;;11.17;35.25;71807.38;4999178;28;20050;-85
2021/04/05 09:57:26;;;;;;;11.35;4.32;;;;;;;10.98;37.00;71779.81;5002555;28;20030;-83
2021/04/05 09:59:54;;;;;;;;;;;;;;;11.58;37.74;71857.22;5001692;28;20065;-84
2021/04/05 10:02:55;;;;;;;11.68;4.68;;;;;;;11.41;38.25;71838.13;4999188;28;20001;-91
2021/04/05 10:05:25;;;;;;;8.50;4.63;;;;;;;10.98;39.15;71788.66;4993730;28;20042;-83
2021/04/05 10:07:55;;;;;;;12.55;5.93;;;;;;;10.99;38.92;71787.09;4991205;28;20131;-86
2021/04/05 10:10:28;;;;;;;8.00;5.65;;;;;;;10.98;40.11;71788.09;4977576;28;20058;-88
2021/04/05 10:12:57;;;;;;;7.25;4.57;;;;;;;10.05;40.11;71681.44;4986624;28;20022;-88
2021/04/05 10:15:27;;;;;;;11.98;4.22;;;;;;;11.00;40.31;71788.28;4998953;28;20055;-88
2021/04/05 10:18:00;;;;;;;10.07;5.40;;;;;;;11.45;41.76;71842.28;4989624;28;20061;-88
2021/04/05 10:20:31;;;;;;;8.15;4.60;;;;;;;11.28;43.38;71819.91;4997671;28;20487;-90
2021/04/05 10:23:08;;;;;;;11.07;5.53;;;;;;;10.89;44.18;71775.19;4990405;28;20060;-87
2021/04/05 10:25:36;;;;;;;9.15;4.93;;;;;;;11.05;45.23;71794.25;4997095;28;20030;-88
2021/04/05 10:28:06;;;;;;;15.38;5.18;;;;;;;11.21;46.99;71815.50;4994206;28;20045;-87
2021/04/05 10:30:35;;;;;;;14.00;5.80;;;;;;;10.75;46.98;71759.13;4977347;28;20042;-90
2021/04/05 10:33:09;;;;;;;7.03;5.38;;;;;;;10.95;46.93;71785.69;4996543;28;20030;-88
2021/04/05 10:35:41;;;;;;;9.27;5.35;;;;;;;11.07;47.92;71796.06;4996183;28;20080;-88
2021/04/05 10:38:08;;;;;;;8.02;4.65;;;;;;;10.91;49.00;71777.56;4995305;28;20032;-89
2021/04/05 10:40:35;;;;;;;13.93;5.88;;;;;;;11.12;49.18;71804.16;4996254;28;20030;-90
2021/04/05 10:43:27;;;;;;;18.38;6.85;;;;;;;10.29;48.99;71708.81;4984350;28;20101;-90
2021/04/05 10:46:01;;;;;;;12.23;6.85;;;;;;;10.84;51.57;71771.97;4981149;28;20038;-85
2021/04/05 10:48:40;;;;;;;10.95;6.05;;;;;;;10.95;50.61;71785.09;4994189;28;20034;-86
2021/04/05 10:51:39;;;;;;;5.60;4.93;;;;;;;10.68;52.86;71754.09;5010379;28;20037;-86
2021/04/05 10:54:07;;;;;;;18.83;6.88;;;;;;;10.63;54.03;71748.16;4982210;28;20483;-88
2021/04/05 10:57:00;;;;;;;12.98;6.05;;;;;;;9.72;54.02;71643.91;4981343;28;20363;-88
2021/04/05 10:59:37;;;;;;;14.55;6.40;;;;;;;10.72;49.45;71758.28;4995384;28;20395;-86
2021/04/05 11:02:15;;;;;;;11.52;5.05;;;;;;;10.41;50.83;71723.72;4988684;28;20034;-87
2021/04/05 11:04:47;;;;;;;6.72;5.32;;;;;;;9.74;50.89;71643.56;4995148;28;20518;-87
2021/04/05 11:07:14;;;;;;;5.80;4.82;;;;;;;10.11;50.38;71688.59;4986355;28;20042;-88
2021/04/05 11:09:42;;;;;;;10.35;5.57;;;;;;;10.05;50.32;71676.53;4985416;28;20034;-85
2021/04/05 11:12:12;;;;;;;12.20;5.38;;;;;;;8.55;49.70;71509.47;4985269;28;20038;-88
2021/04/05 11:14:41;;;;;;;;;;;;;;;10.66;50.12;71748.97;4988836;28;20167;-87
2021/04/05 11:17:10;;;;;;;13.57;5.55;;;;;;;9.78;50.30;71650.47;5009064;28;19913;-86
2021/04/05 11:19:50;;;;;;;9.80;5.78;;;;;;;9.34;49.78;71600.47;4995557;28;20453;-88
2021/04/05 11:22:29;;;;;;;6.93;4.80;;;;;;;10.52;50.64;71735.66;4989644;28;20400;-87
2021/04/05 11:25:03;;;;;;;13.13;6.53;;;;;;;10.63;49.74;71748.16;4987460;28;20038;-87
2021/04/05 11:27:32;;;;;;;8.73;4.43;;;;;;;10.36;50.73;71717.75;4997064;28;20041;-85
2021/04/05 11:30:07;;;;;;;8.48;5.45;;;;;;;10.10;50.32;71687.41;4995734;28;20022;-87
2021/04/05 11:32:40;;;;;;;10.75;5.70;;;;;;;10.46;50.29;71728.50;4994961;28;20533;-87
2021/04/05 11:35:11;;;;;;;8.73;5.88;;;;;;;9.95;50.86;71667.97;4996853;28;20148;-87
2021/04/05 11:37:40;;;;;;;12.18;5.00;;;;;;;10.64;50.57;71746.59;5010246;28;20034;-88
2021/04/05 11:40:20;;;;;;;7.45;4.35;;;;;;;9.83;50.06;71656.41;5016594;28;20026;-89
2021/04/05 11:42:50;;;;;;;9.55;6.63;;;;;;;10.64;50.51;71746.59;5009834;28;20046;-88
2021/04/05 11:45:48;;;;;;;15.15;5.85;;;;;;;9.83;51.20;71657.03;5019566;28;20041;-87
2021/04/05 11:48:23;;;;;;;18.10;5.70;;;;;;;10.10;49.34;71685.22;5011452;28;20045;-87
2021/04/05 11:50:53;;;;;;;12.45;5.15;;;;;;;9.67;49.55;71633.06;5007650;28;20022;-86
2021/04/05 11:53:38;;;;;;;;;;;;;;;10.67;49.78;71750.16;5004926;28;20067;-86
2021/04/05 11:56:20;;;;;;;16.48;6.90;;;;;;;9.74;49.79;71640.81;5010014;28;19932;-86
2021/04/05 11:59:13;;;;;;;7.43;5.07;;;;;;;10.70;50.02;71750.97;5006055;28;20037;-87
2021/04/05 12:02:04;;;;;;;14.80;6.05;;;;;;;10.06;50.91;71672.25;5000769;28;20447;-87
2021/04/05 12:05:03;;;;;;;11.45;5.38;;;;;;;10.78;51.59;71763.28;4994680;28;20069;-86
2021/04/05 12:07:35;;;;;;;10.73;5.55;;;;;;;9.77;51.56;71649.88;4981501;28;20046;-88
2021/04/05 12:10:07;;;;;;;9.77;5.45;;;;;;;10.88;51.72;71771.25;4990116;28;20409;-87
2021/04/05 12:12:53;;;;;;;10.73;4.80;;;;;;;10.39;51.49;71720.72;4995264;28;20037;-87